Time;durP1;ratioP1;P1;durP2;ratioP2;P2;SDS_P1;SDS_P2;PMS_P1;PMS_P2;Temp;Humidity;BMP_temperature;BMP_pressure;BME280_temperature;BME280_humidity;BME280_pressure;Samples;Min_cycle;Max_cycle;Signal;HPM_P1;HPM_P2
2022/06/06 00:01:56;;;;;;;2.60;2.40;;;15.20;99.90;;;;;;5090163;28;20616;-89
2022/06/06 00:04:24;;;;;;;2.67;2.47;;;15.20;99.90;;;;;;5092587;28;21666;-89
2022/06/06 00:06:53;;;;;;;5.20;2.20;;;15.10;99.90;;;;;;5092889;28;20616;-88
2022/06/06 00:09:20;;;;;;;4.70;3.23;;;15.10;99.90;;;;;;5089251;28;20639;-88
2022/06/06 00:11:47;;;;;;;3.53;2.33;;;15.10;99.90;;;;;;5092198;28;20628;-88
2022/06/06 00:14:17;;;;;;;3.40;2.80;;;15.10;99.90;;;;;;5092452;28;20626;-88
2022/06/06 00:16:45;;;;;;;3.00;2.43;;;15.10;99.90;;;;;;5095326;28;20616;-88
2022/06/06 00:19:13;;;;;;;3.43;2.80;;;15.10;99.90;;;;;;5094171;28;20627;-88
2022/06/06 00:21:41;;;;;;;2.40;2.20;;;15.10;99.90;;;;;;5090972;28;20666;-88
2022/06/06 00:24:08;;;;;;;2.97;2.67;;;15.00;99.90;;;;;;5088672;28;20643;-88
2022/06/06 00:26:37;;;;;;;3.07;2.87;;;15.00;99.90;;;;;;5086891;28;20632;-88
2022/06/06 00:29:05;;;;;;;3.43;3.10;;;15.00;99.90;;;;;;5094361;28;21485;-88
2022/06/06 00:37:05;;;;;;;4.60;3.10;;;15.30;99.90;;;;;;5084594;28;21161;-88
2022/06/06 00:39:32;;;;;;;3.80;2.93;;;15.40;99.90;;;;;;5086406;28;21375;-89
2022/06/06 00:42:00;;;;;;;3.00;2.50;;;15.40;99.90;;;;;;5088341;28;20663;-87
2022/06/06 00:44:31;;;;;;;3.17;2.90;;;15.30;99.90;;;;;;5090003;28;20681;-90
2022/06/06 00:47:05;;;;;;;3.40;3.10;;;15.30;99.90;;;;;;5092553;28;21162;-90
2022/06/06 00:49:38;;;;;;;3.70;3.00;;;15.40;99.90;;;;;;5089396;28;20651;-88
2022/06/06 00:52:09;;;;;;;4.90;2.90;;;15.20;99.90;;;;;;5087235;28;20669;-88
2022/06/06 00:54:36;;;;;;;3.90;3.27;;;15.10;99.90;;;;;;5093133;28;20623;-88
2022/06/06 00:57:09;;;;;;;3.00;2.73;;;15.10;99.90;;;;;;5089524;28;20636;-89
2022/06/06 00:59:38;;;;;;;3.37;3.10;;;15.00;99.90;;;;;;5085106;28;20701;-89
2022/06/06 01:02:09;;;;;;;8.63;3.00;;;15.00;99.90;;;;;;5090027;28;20659;-89
2022/06/06 01:04:40;;;;;;;3.37;3.10;;;15.00;99.90;;;;;;5086751;28;21012;-90
2022/06/06 01:07:09;;;;;;;3.47;3.17;;;14.90;99.90;;;;;;5090279;28;20696;-89
2022/06/06 01:09:37;;;;;;;3.40;2.90;;;14.90;99.90;;;;;;5084873;28;21555;-91
2022/06/06 01:12:07;;;;;;;5.03;3.40;;;14.90;99.90;;;;;;5085212;28;20695;-89
2022/06/06 01:14:39;;;;;;;4.50;2.80;;;14.80;99.90;;;;;;5085934;28;20627;-88
2022/06/06 01:17:16;;;;;;;8.03;2.97;;;14.80;99.90;;;;;;5086037;28;21192;-89
2022/06/06 01:19:59;;;;;;;5.50;3.40;;;14.70;99.90;;;;;;5090593;28;21241;-89
2022/06/06 01:23:08;;;;;;;3.70;3.20;;;14.70;99.90;;;;;;5091477;28;20631;-89
2022/06/06 01:26:05;;;;;;;3.47;3.17;;;14.60;99.90;;;;;;5091403;28;20612;-90
2022/06/06 01:28:54;;;;;;;3.60;2.83;;;14.60;99.90;;;;;;5088848;28;20620;-89
2022/06/06 01:31:26;;;;;;;3.70;2.73;;;14.60;99.90;;;;;;5090620;28;20655;-88
2022/06/06 01:33:59;;;;;;;4.40;2.90;;;14.50;99.90;;;;;;5091126;28;20616;-89
2022/06/06 01:36:29;;;;;;;3.97;3.27;;;14.50;99.90;;;;;;5090208;28;20705;-89
2022/06/06 01:38:57;;;;;;;8.37;4.00;;;14.50;99.90;;;;;;5096085;28;20632;-88
2022/06/06 01:41:33;;;;;;;3.43;3.13;;;14.50;99.90;;;;;;5094497;28;20672;-88
2022/06/06 01:44:08;;;;;;;3.67;2.50;;;14.40;99.90;;;;;;5090971;28;21118;-88
2022/06/06 01:46:37;;;;;;;5.63;3.17;;;14.40;99.90;;;;;;5091214;28;20699;-88
2022/06/06 01:49:07;;;;;;;3.43;2.97;;;14.40;99.90;;;;;;5087703;28;20697;-89
2022/06/06 01:51:34;;;;;;;8.50;3.40;;;14.40;99.90;;;;;;5089699;28;20640;-88
2022/06/06 01:54:01;;;;;;;4.90;3.10;;;14.40;99.90;;;;;;5092178;28;21276;-87
2022/06/06 01:56:31;;;;;;;6.03;3.30;;;14.40;99.90;;;;;;5089171;28;20982;-87
2022/06/06 01:58:58;;;;;;;7.33;3.27;;;14.30;99.90;;;;;;5089388;28;20581;-87
2022/06/06 02:01:26;;;;;;;4.43;3.07;;;14.30;99.90;;;;;;5088848;28;20674;-88
2022/06/06 02:03:54;;;;;;;6.33;4.00;;;14.30;99.90;;;;;;5089445;28;20642;-87
2022/06/06 02:06:21;;;;;;;5.70;3.33;;;14.20;99.90;;;;;;5094466;28;20625;-88
2022/06/06 02:08:48;;;;;;;3.33;3.00;;;14.20;99.90;;;;;;5089472;28;20632;-88
2022/06/06 02:11:15;;;;;;;4.13;3.83;;;14.20;99.90;;;;;;5094231;28;20647;-88
2022/06/06 02:13:42;;;;;;;3.73;3.03;;;14.20;99.90;;;;;;5089743;28;20626;-88
2022/06/06 02:16:09;;;;;;;3.60;3.40;;;14.20;99.90;;;;;;5091323;28;20616;-89
2022/06/06 02:18:38;;;;;;;4.37;3.13;;;14.20;99.90;;;;;;5093045;28;20616;-88
2022/06/06 02:21:06;;;;;;;3.20;3.00;;;14.20;99.90;;;;;;5092374;28;20664;-89
2022/06/06 02:23:33;;;;;;;3.83;3.07;;;14.20;99.90;;;;;;5087256;28;20632;-89
2022/06/06 02:25:59;;;;;;;3.77;3.47;;;14.10;99.90;;;;;;5088594;28;21740;-89
2022/06/06 02:28:27;;;;;;;7.50;3.50;;;14.00;99.90;;;;;;5088147;28;20749;-88
2022/06/06 02:30:54;;;;;;;3.63;3.33;;;14.00;99.90;;;;;;5089104;28;20652;-89
2022/06/06 02:33:21;;;;;;;4.00;3.17;;;14.00;99.90;;;;;;5092096;28;20616;-88
2022/06/06 02:35:49;;;;;;;3.47;3.17;;;13.90;99.90;;;;;;5089412;28;20638;-89
2022/06/06 02:38:18;;;;;;;8.90;4.07;;;13.90;99.90;;;;;;5086136;28;20628;-90
2022/06/06 02:40:45;;;;;;;3.30;3.10;;;13.80;99.90;;;;;;5090488;28;21039;-90
2022/06/06 02:43:13;;;;;;;4.43;2.90;;;13.80;99.90;;;;;;5088603;28;20632;-90
2022/06/06 02:45:40;;;;;;;3.33;3.03;;;13.90;99.90;;;;;;5091127;28;20640;-89
2022/06/06 02:48:10;;;;;;;4.27;3.87;;;13.90;99.90;;;;;;5092931;28;20688;-90
2022/06/06 02:50:37;;;;;;;4.40;3.20;;;13.80;99.90;;;;;;5088735;28;20676;-90
2022/06/06 02:53:06;;;;;;;6.07;3.50;;;13.80;99.90;;;;;;5097429;28;20623;-89
2022/06/06 02:55:33;;;;;;;2.80;2.60;;;13.70;99.90;;;;;;5091795;28;20678;-89
2022/06/06 02:58:01;;;;;;;4.27;3.90;;;13.70;99.90;;;;;;5089734;28;20617;-88
2022/06/06 03:00:31;;;;;;;4.40;4.03;;;13.70;99.90;;;;;;5091666;28;21079;-88
2022/06/06 03:02:59;;;;;;;6.13;3.27;;;13.70;99.90;;;;;;5089532;28;20616;-89
2022/06/06 03:05:36;;;;;;;5.17;3.20;;;13.70;99.90;;;;;;5093226;28;20663;-89
2022/06/06 03:08:18;;;;;;;5.00;3.00;;;13.70;99.90;;;;;;5092122;28;20846;-89
2022/06/06 03:11:07;;;;;;;3.73;3.43;;;13.60;99.90;;;;;;5087833;28;20655;-89
2022/06/06 03:14:03;;;;;;;3.70;3.40;;;13.60;99.90;;;;;;5086814;28;20646;-89
2022/06/06 03:22:37;;;;;;;3.40;3.20;;;13.60;99.90;;;;;;5090313;28;20654;-89
2022/06/06 03:25:13;;;;;;;7.37;3.37;;;13.50;99.90;;;;;;5090668;28;21446;-88
2022/06/06 03:27:47;;;;;;;4.00;3.70;;;13.50;99.90;;;;;;5095225;28;20622;-89
2022/06/06 03:30:22;;;;;;;3.73;3.17;;;13.50;99.90;;;;;;5090553;28;20639;-89
2022/06/06 03:32:59;;;;;;;3.77;3.47;;;13.50;99.90;;;;;;5089635;28;20599;-89
2022/06/06 03:35:39;;;;;;;3.97;3.67;;;13.50;99.90;;;;;;5089617;28;20624;-89
2022/06/06 03:38:12;;;;;;;4.77;3.73;;;13.20;99.90;;;;;;5089376;28;21192;-89
2022/06/06 03:40:53;;;;;;;4.20;3.80;;;13.60;99.90;;;;;;5092476;28;20651;-89
2022/06/06 03:43:32;;;;;;;5.57;4.40;;;13.60;99.90;;;;;;5088550;28;21040;-87
2022/06/06 03:46:13;;;;;;;5.57;3.97;;;13.70;99.90;;;;;;5092331;28;20977;-88
2022/06/06 03:48:51;;;;;;;6.30;3.80;;;13.70;99.90;;;;;;5085430;28;20763;-88
2022/06/06 03:51:28;;;;;;;3.50;3.20;;;13.70;99.90;;;;;;5088431;28;20642;-90
2022/06/06 03:54:02;;;;;;;4.47;3.80;;;13.70;99.90;;;;;;5096135;28;20663;-89
2022/06/06 03:56:45;;;;;;;4.40;4.03;;;13.70;99.90;;;;;;5093569;28;20615;-89
2022/06/06 03:59:15;;;;;;;4.73;4.00;;;13.70;99.90;;;;;;5094564;28;21170;-89
2022/06/06 04:01:43;;;;;;;4.37;3.90;;;13.80;99.90;;;;;;5095002;28;20660;-89
2022/06/06 04:04:11;;;;;;;5.03;4.30;;;13.80;99.90;;;;;;5094241;28;20680;-89
2022/06/06 04:06:38;;;;;;;3.80;3.50;;;13.80;99.90;;;;;;5089850;28;21028;-89
2022/06/06 04:09:05;;;;;;;4.43;4.00;;;13.90;99.90;;;;;;5092683;28;21233;-90
2022/06/06 04:11:44;;;;;;;4.50;4.10;;;13.90;99.90;;;;;;5091005;28;20646;-90
2022/06/06 04:14:23;;;;;;;5.27;4.23;;;13.90;99.90;;;;;;5095906;28;20626;-89
2022/06/06 04:16:59;;;;;;;4.40;4.10;;;13.80;99.90;;;;;;5091052;28;20627;-89
2022/06/06 04:19:49;;;;;;;7.13;4.40;;;13.90;99.90;;;;;;5093990;28;20630;-90
2022/06/06 04:22:27;;;;;;;4.63;4.17;;;13.90;99.90;;;;;;5088371;28;20647;-90
2022/06/06 04:25:07;;;;;;;4.37;3.97;;;13.90;99.90;;;;;;5087895;28;20576;-90
2022/06/06 04:27:42;;;;;;;4.60;4.27;;;14.00;99.90;;;;;;5090860;28;20622;-90
2022/06/06 04:30:19;;;;;;;4.90;4.50;;;14.00;99.90;;;;;;5098058;28;20642;-89
2022/06/06 04:32:57;;;;;;;4.27;3.87;;;14.10;99.90;;;;;;5093463;28;20626;-90
2022/06/06 04:35:30;;;;;;;4.67;4.33;;;14.20;99.90;;;;;;5095247;28;20623;-88
2022/06/06 04:38:07;;;;;;;4.70;4.30;;;14.20;99.90;;;;;;5092964;28;21566;-89
2022/06/06 04:40:44;;;;;;;6.63;4.30;;;14.20;99.90;;;;;;5091276;28;21206;-89
2022/06/06 04:43:22;;;;;;;4.80;4.40;;;14.30;99.90;;;;;;5093676;28;20659;-88
2022/06/06 04:45:55;;;;;;;5.27;4.73;;;14.40;99.90;;;;;;5096709;28;21150;-89
2022/06/06 04:48:23;;;;;;;4.23;3.83;;;14.50;99.90;;;;;;5091770;28;21522;-88
2022/06/06 04:50:50;;;;;;;5.20;4.77;;;14.50;99.90;;;;;;5089738;28;21230;-88
2022/06/06 04:53:21;;;;;;;8.13;4.70;;;14.60;99.90;;;;;;5094899;28;20619;-88
2022/06/06 04:55:51;;;;;;;6.63;4.53;;;14.70;99.90;;;;;;5092602;28;21288;-87
2022/06/06 04:58:21;;;;;;;5.90;5.40;;;14.70;99.90;;;;;;5095059;28;20623;-87
2022/06/06 05:00:48;;;;;;;4.90;4.50;;;14.80;99.90;;;;;;5091935;28;20683;-87
2022/06/06 05:03:15;;;;;;;5.07;4.77;;;14.90;99.90;;;;;;5091252;28;20654;-87
2022/06/06 05:05:56;;;;;;;5.53;4.30;;;15.00;99.90;;;;;;5092010;28;20632;-87
2022/06/06 05:08:35;;;;;;;6.50;5.07;;;15.00;99.90;;;;;;5089419;28;20632;-87
2022/06/06 05:11:25;;;;;;;4.83;4.40;;;15.20;99.90;;;;;;5093901;28;20651;-87
2022/06/06 05:14:06;;;;;;;5.40;5.00;;;15.20;99.90;;;;;;5091481;28;20727;-87
2022/06/06 05:16:51;;;;;;;5.27;4.73;;;15.40;99.90;;;;;;5092841;28;20622;-87
2022/06/06 05:19:38;;;;;;;5.63;3.60;;;15.40;99.90;;;;;;5087417;28;20620;-87
2022/06/06 05:22:40;;;;;;;4.50;4.30;;;15.60;99.90;;;;;;5089927;28;20740;-87
2022/06/06 05:25:30;;;;;;;5.30;4.23;;;15.80;99.90;;;;;;5067375;28;20644;-87
2022/06/06 05:28:33;;;;;;;3.97;3.67;;;15.90;99.90;;;;;;5089822;28;20651;-88
2022/06/06 05:31:13;;;;;;;4.20;3.87;;;15.90;99.90;;;;;;5090528;28;21115;-87
2022/06/06 05:33:47;;;;;;;8.77;4.40;;;15.90;99.90;;;;;;5090699;28;20620;-87
2022/06/06 05:36:48;;;;;;;5.00;4.50;;;16.00;99.90;;;;;;5084357;28;20620;-88
2022/06/06 05:39:34;;;;;;;4.83;4.00;;;16.10;99.90;;;;;;5088727;28;20623;-88
2022/06/06 05:42:22;;;;;;;7.13;5.20;;;16.10;99.90;;;;;;5094135;28;20660;-87
2022/06/06 05:45:00;;;;;;;5.17;4.60;;;16.20;99.90;;;;;;5090938;28;20628;-88
2022/06/06 05:47:36;;;;;;;3.63;3.43;;;16.30;99.90;;;;;;5093929;28;20651;-89
2022/06/06 05:50:15;;;;;;;6.43;4.20;;;16.40;99.90;;;;;;5090993;28;20620;-89
2022/06/06 05:52:55;;;;;;;4.07;3.77;;;16.50;99.90;;;;;;5088064;28;20634;-89
2022/06/06 05:55:41;;;;;;;4.83;3.80;;;16.50;99.90;;;;;;5091199;28;20998;-88
2022/06/06 05:58:22;;;;;;;3.93;3.63;;;16.70;99.90;;;;;;5084838;28;20675;-88
2022/06/06 06:01:02;;;;;;;4.30;3.90;;;16.80;99.90;;;;;;5084980;28;20963;-88
2022/06/06 06:03:56;;;;;;;4.10;3.73;;;16.90;99.90;;;;;;5091559;28;20770;-88
2022/06/06 06:06:33;;;;;;;3.70;3.33;;;17.10;99.90;;;;;;5087860;28;20651;-87
2022/06/06 06:09:15;;;;;;;3.03;2.83;;;17.20;99.90;;;;;;5089809;28;20671;-87
2022/06/06 06:12:04;;;;;;;3.03;2.73;;;17.30;99.90;;;;;;5092301;28;20624;-87
2022/06/06 06:14:42;;;;;;;8.80;3.30;;;17.30;99.90;;;;;;5093264;28;20709;-89
2022/06/06 06:17:11;;;;;;;3.77;3.40;;;17.30;99.90;;;;;;5092646;28;20727;-88
2022/06/06 06:19:50;;;;;;;3.07;2.87;;;17.40;99.90;;;;;;5090077;28;20634;-89
2022/06/06 06:22:19;;;;;;;3.03;2.73;;;17.50;99.90;;;;;;5090766;28;21608;-88
2022/06/06 06:24:46;;;;;;;2.87;2.67;;;17.50;99.90;;;;;;5086078;28;20635;-89
2022/06/06 06:27:14;;;;;;;3.03;2.73;;;17.60;99.90;;;;;;5083041;28;21430;-87
2022/06/06 06:29:41;;;;;;;3.50;3.20;;;17.60;99.90;;;;;;5090281;28;21139;-89
2022/06/06 06:32:21;;;;;;;4.10;3.10;;;17.60;99.90;;;;;;5093083;28;20608;-88
2022/06/06 06:35:02;;;;;;;3.40;3.10;;;17.60;99.90;;;;;;5085197;28;20581;-88
2022/06/06 06:37:41;;;;;;;3.40;3.10;;;17.80;99.90;;;;;;5088298;28;20647;-88
2022/06/06 06:40:20;;;;;;;3.50;3.30;;;17.90;99.90;;;;;;5093988;28;20623;-89
2022/06/06 06:43:10;;;;;;;3.63;3.33;;;18.00;99.90;;;;;;5087274;28;20666;-89
2022/06/06 06:45:42;;;;;;;5.20;3.43;;;18.00;99.90;;;;;;5087049;28;20643;-88
2022/06/06 06:48:12;;;;;;;3.30;3.00;;;18.00;99.90;;;;;;5083847;28;21218;-87
2022/06/06 06:50:52;;;;;;;4.07;3.30;;;18.10;99.90;;;;;;5087938;28;20724;-89
2022/06/06 06:53:39;;;;;;;3.33;3.03;;;18.20;99.90;;;;;;5090725;28;21169;-87
2022/06/06 06:56:12;;;;;;;2.90;2.60;;;18.20;99.90;;;;;;5087039;28;20612;-89
2022/06/06 06:58:50;;;;;;;3.70;2.97;;;18.20;99.90;;;;;;5088528;28;20651;-87
2022/06/06 07:01:27;;;;;;;3.10;2.63;;;18.30;99.90;;;;;;5090542;28;20626;-89
2022/06/06 07:10:02;;;;;;;3.30;3.00;;;18.50;99.90;;;;;;5084352;28;20662;-87
2022/06/06 07:12:42;;;;;;;3.93;3.60;;;18.60;99.90;;;;;;5088496;28;20630;-87
2022/06/06 07:15:18;;;;;;;3.93;3.10;;;18.70;99.90;;;;;;5089473;28;20632;-87
2022/06/06 07:17:49;;;;;;;4.37;3.40;;;18.70;99.90;;;;;;5088185;28;20648;-87
2022/06/06 07:20:18;;;;;;;10.80;4.43;;;18.60;99.90;;;;;;5082472;28;20620;-89
2022/06/06 07:23:02;;;;;;;3.40;3.20;;;18.70;99.90;;;;;;5088164;28;21222;-89
2022/06/06 07:25:36;;;;;;;3.90;3.60;;;18.90;99.90;;;;;;5090029;28;20612;-88
2022/06/06 07:28:05;;;;;;;3.30;3.10;;;19.20;99.90;;;;;;5093133;28;20647;-89
2022/06/06 07:30:36;;;;;;;3.50;3.30;;;19.30;99.90;;;;;;5089319;28;20663;-88
2022/06/06 07:33:22;;;;;;;3.50;3.20;;;19.40;99.90;;;;;;5096127;28;20653;-88
2022/06/06 07:36:01;;;;;;;3.87;3.57;;;19.60;99.90;;;;;;5093477;28;21205;-88
2022/06/06 07:38:41;;;;;;;4.17;3.60;;;19.80;99.90;;;;;;5091204;28;20626;-86
2022/06/06 07:41:18;;;;;;;5.77;3.73;;;19.90;99.90;;;;;;5092817;28;20754;-87
2022/06/06 07:43:56;;;;;;;5.53;3.27;;;20.00;99.90;;;;;;5090750;28;21179;-88
2022/06/06 07:46:31;;;;;;;3.73;3.50;;;20.00;99.90;;;;;;5084900;28;20620;-86
2022/06/06 07:49:05;;;;;;;5.10;3.60;;;19.90;99.90;;;;;;5087081;28;20607;-86
2022/06/06 07:51:43;;;;;;;3.60;3.30;;;20.00;99.90;;;;;;5093274;28;20666;-86
2022/06/06 07:54:30;;;;;;;3.73;3.43;;;20.10;99.90;;;;;;5095348;28;20703;-85
2022/06/06 07:57:09;;;;;;;3.73;3.53;;;20.30;99.90;;;;;;5094809;28;20618;-87
2022/06/06 07:59:48;;;;;;;3.30;3.10;;;20.30;99.90;;;;;;5094300;28;20617;-87
2022/06/06 08:02:32;;;;;;;3.60;3.30;;;20.40;99.90;;;;;;5097790;28;20673;-87
2022/06/06 08:05:12;;;;;;;5.70;3.57;;;20.60;99.90;;;;;;5101166;28;20640;-87
2022/06/06 08:07:45;;;;;;;4.87;3.50;;;20.90;99.90;;;;;;5094830;28;20584;-87
2022/06/06 08:10:26;;;;;;;3.73;3.50;;;21.00;99.90;;;;;;5101605;28;20651;-86
2022/06/06 08:13:11;;;;;;;3.17;2.97;;;21.30;99.90;;;;;;5099538;28;20691;-87
2022/06/06 08:15:58;;;;;;;3.97;3.60;;;21.20;99.90;;;;;;5098848;28;20626;-88
2022/06/06 08:18:54;;;;;;;3.30;3.00;;;21.20;99.90;;;;;;5099760;28;20628;-88
2022/06/06 08:21:29;;;;;;;4.33;3.43;;;21.30;99.90;;;;;;5101621;28;20988;-88
2022/06/06 08:23:59;;;;;;;3.60;3.30;;;21.10;99.90;;;;;;5100206;28;20652;-88
2022/06/06 08:26:30;;;;;;;3.77;3.37;;;21.30;99.90;;;;;;5093295;28;20619;-87
2022/06/06 08:28:59;;;;;;;3.10;2.80;;;21.20;99.90;;;;;;5101676;28;20622;-87
2022/06/06 08:31:26;;;;;;;4.23;3.47;;;21.40;99.90;;;;;;5101702;28;20639;-87
2022/06/06 08:33:53;;;;;;;5.40;3.20;;;21.40;99.90;;;;;;5092155;28;20647;-87
2022/06/06 08:36:45;;;;;;;3.40;3.10;;;21.40;99.90;;;;;;5089406;28;20989;-87
2022/06/06 08:39:23;;;;;;;4.00;3.33;;;21.50;99.90;;;;;;5082925;28;21183;-87
2022/06/06 08:42:24;;;;;;;3.07;2.87;;;21.70;99.90;;;;;;5087205;28;21022;-88
2022/06/06 08:44:57;;;;;;;5.37;2.30;;;21.80;99.90;;;;;;5089860;28;20620;-87
2022/06/06 08:47:34;;;;;;;3.47;2.53;;;21.90;99.90;;;;;;5086333;28;21288;-88
2022/06/06 08:54:02;;;;;;;3.10;1.70;;;22.10;99.90;;;;;;5072559;28;20604;-87
2022/06/06 08:56:43;;;;;;;2.97;2.50;;;22.30;99.90;;;;;;5091333;28;20629;-87
2022/06/06 08:59:45;;;;;;;2.57;2.37;;;22.20;99.90;;;;;;5088093;28;20624;-88
2022/06/06 09:02:49;;;;;;;2.87;2.60;;;22.40;99.90;;;;;;5086242;28;21079;-87
2022/06/06 09:05:47;;;;;;;5.00;2.47;;;22.50;99.90;;;;;;5090746;28;20626;-87
2022/06/06 09:08:49;;;;;;;2.90;2.43;;;22.70;99.90;;;;;;5088024;28;20628;-87
2022/06/06 09:12:08;;;;;;;3.93;2.53;;;22.80;99.90;;;;;;5067573;28;20990;-87
2022/06/06 09:15:16;;;;;;;3.07;1.90;;;22.90;99.90;;;;;;5091027;28;20744;-87
2022/06/06 09:18:19;;;;;;;2.30;2.10;;;23.10;99.90;;;;;;5092761;28;20682;-87
2022/06/06 09:21:34;;;;;;;2.50;2.30;;;23.10;99.90;;;;;;5059376;28;20739;-87
2022/06/06 09:24:35;;;;;;;3.53;2.43;;;23.10;99.90;;;;;;5051185;28;20760;-88
2022/06/06 09:27:41;;;;;;;1.87;1.77;;;23.30;99.90;;;;;;5090540;28;20619;-88
2022/06/06 09:30:19;;;;;;;3.90;1.90;;;23.40;99.90;;;;;;5051363;28;21263;-87
2022/06/06 09:33:14;;;;;;;2.40;2.00;;;23.50;99.90;;;;;;5092799;28;21501;-87
2022/06/06 09:36:01;;;;;;;2.30;2.10;;;23.50;99.90;;;;;;5094212;28;20616;-87
2022/06/06 09:38:46;;;;;;;2.70;2.50;;;23.40;99.90;;;;;;5087302;28;20607;-87
2022/06/06 09:41:34;;;;;;;3.37;1.87;;;23.50;99.90;;;;;;5087204;28;21047;-87
2022/06/06 09:44:12;;;;;;;5.27;2.10;;;23.60;99.90;;;;;;5094551;28;21205;-88
2022/06/06 09:47:13;;;;;;;3.13;1.87;;;23.60;99.90;;;;;;5087586;28;20616;-85
2022/06/06 09:50:22;;;;;;;2.50;1.57;;;23.70;99.60;;;;;;5083328;28;21279;-85
2022/06/06 09:53:17;;;;;;;2.60;1.53;;;23.70;95.80;;;;;;5086332;28;20724;-84
2022/06/06 09:59:50;;;;;;;2.33;1.57;;;23.90;95.80;;;;;;5087472;28;21094;-85
2022/06/06 10:02:54;;;;;;;3.50;1.50;;;24.10;95.10;;;;;;5085368;28;20624;-85
2022/06/06 10:06:01;;;;;;;1.50;1.37;;;24.10;94.40;;;;;;5092262;28;20624;-86
2022/06/06 10:09:14;;;;;;;1.77;1.67;;;24.10;92.50;;;;;;5062845;28;20662;-86
2022/06/06 10:12:19;;;;;;;1.70;1.60;;;24.10;94.50;;;;;;5089906;28;20626;-88
2022/06/06 10:15:26;;;;;;;2.90;1.60;;;24.10;93.40;;;;;;5089013;28;20638;-87
2022/06/06 10:18:26;;;;;;;2.10;1.63;;;24.10;93.30;;;;;;5077103;28;20640;-87
2022/06/06 10:21:16;;;;;;;4.23;2.30;;;24.10;93.30;;;;;;5087121;28;20707;-86
2022/06/06 10:24:05;;;;;;;1.40;1.30;;;24.20;94.10;;;;;;5089601;28;20690;-87
2022/06/06 10:26:54;;;;;;;1.93;1.83;;;24.30;93.00;;;;;;5083859;28;20626;-87
2022/06/06 10:30:13;;;;;;;1.47;1.37;;;24.50;94.70;;;;;;5088647;28;20655;-86
2022/06/06 10:33:25;;;;;;;2.20;1.80;;;24.70;95.00;;;;;;5090508;28;20677;-87
2022/06/06 10:36:12;;;;;;;2.03;1.83;;;24.90;91.70;;;;;;5087678;28;20753;-87
2022/06/06 10:39:10;;;;;;;1.63;1.53;;;24.90;91.10;;;;;;5085100;28;21199;-87
2022/06/06 10:41:55;;;;;;;2.23;2.13;;;25.00;91.80;;;;;;5085961;28;20944;-87
2022/06/06 10:44:51;;;;;;;2.47;1.80;;;25.00;91.80;;;;;;5088068;28;20664;-86
2022/06/06 10:47:32;;;;;;;2.80;2.60;;;25.20;91.60;;;;;;5085447;28;20612;-86
2022/06/06 10:50:06;;;;;;;2.53;1.50;;;25.40;91.10;;;;;;5087743;28;20639;-86
2022/06/06 10:53:15;;;;;;;1.73;1.63;;;25.50;87.70;;;;;;5083911;28;21204;-87
2022/06/06 10:56:38;;;;;;;1.50;1.40;;;25.60;89.20;;;;;;5083228;28;20729;-86
2022/06/06 10:59:39;;;;;;;1.63;1.53;;;25.80;88.10;;;;;;5063199;28;20635;-86
2022/06/06 11:02:38;;;;;;;1.73;1.60;;;26.10;85.90;;;;;;5090610;28;20658;-86
2022/06/06 11:05:31;;;;;;;1.40;1.30;;;26.40;80.60;;;;;;5093921;28;20659;-86
2022/06/06 11:08:40;;;;;;;1.73;1.63;;;26.50;81.20;;;;;;5087622;28;20719;-85
2022/06/06 11:11:35;;;;;;;1.70;1.47;;;26.70;82.20;;;;;;5095975;28;20765;-86
2022/06/06 11:14:06;;;;;;;3.07;1.97;;;26.60;72.50;;;;;;5091695;28;20646;-87
2022/06/06 11:17:21;;;;;;;2.60;1.80;;;26.60;72.50;;;;;;5093211;28;20615;-86
2022/06/06 11:20:08;;;;;;;2.93;1.63;;;26.70;74.90;;;;;;5090128;28;20751;-86
2022/06/06 11:22:39;;;;;;;1.57;1.47;;;26.90;73.80;;;;;;5084816;28;23238;-86
2022/06/06 11:25:12;;;;;;;1.97;1.60;;;27.10;74.90;;;;;;5091095;28;20650;-86
2022/06/06 11:28:15;;;;;;;3.00;1.60;;;27.40;74.60;;;;;;5086879;28;21150;-86
2022/06/06 11:31:01;;;;;;;2.60;1.67;;;27.40;71.20;;;;;;5082271;28;20659;-86
2022/06/06 11:33:59;;;;;;;1.50;1.40;;;27.60;71.40;;;;;;5092470;28;20639;-89
2022/06/06 11:36:59;;;;;;;2.70;1.50;;;27.50;69.10;;;;;;5083755;28;20641;-90
2022/06/06 11:40:01;;;;;;;1.40;1.30;;;27.40;68.70;;;;;;5093437;28;20640;-90
2022/06/06 11:43:00;;;;;;;1.87;1.67;;;27.10;67.90;;;;;;5050837;28;20666;-89
2022/06/06 11:45:51;;;;;;;2.67;1.77;;;26.90;69.00;;;;;;5091717;28;20654;-89
2022/06/06 11:48:45;;;;;;;2.27;2.07;;;26.50;70.30;;;;;;5095616;28;20684;-89
2022/06/06 11:51:37;;;;;;;1.80;1.67;;;26.30;72.70;;;;;;5091647;28;20652;-90
2022/06/06 11:54:39;;;;;;;2.60;1.60;;;26.00;74.50;;;;;;5096581;28;20584;-91
2022/06/06 11:57:43;;;;;;;2.10;1.70;;;25.90;73.80;;;;;;5089981;28;20619;-90
2022/06/06 12:00:22;;;;;;;2.63;1.90;;;25.80;75.30;;;;;;5083728;28;21001;-90
2022/06/06 12:03:27;;;;;;;1.60;1.50;;;25.70;75.20;;;;;;5097982;28;20623;-90
2022/06/06 12:06:53;;;;;;;2.43;1.40;;;25.50;76.60;;;;;;5098021;28;20611;-90
2022/06/06 12:09:29;;;;;;;2.30;1.53;;;25.40;75.30;;;;;;5097463;28;20630;-89
2022/06/06 12:12:26;;;;;;;1.57;1.47;;;25.40;77.10;;;;;;5091905;28;20647;-89
2022/06/06 12:15:17;;;;;;;2.27;1.60;;;25.20;76.90;;;;;;5095674;28;20987;-90
2022/06/06 12:17:56;;;;;;;2.20;1.70;;;25.00;80.30;;;;;;5092417;28;20600;-91
2022/06/06 12:20:56;;;;;;;2.17;1.60;;;24.90;80.30;;;;;;5092523;28;20696;-90
2022/06/06 12:23:34;;;;;;;2.90;2.03;;;24.80;81.20;;;;;;5093522;28;20695;-88
2022/06/06 12:26:19;;;;;;;1.50;1.40;;;24.60;81.00;;;;;;5097937;28;21570;-89
2022/06/06 12:29:24;;;;;;;2.67;1.60;;;24.60;84.70;;;;;;5094422;28;20740;-89
2022/06/06 12:32:11;;;;;;;2.80;2.20;;;24.50;82.30;;;;;;5057057;28;20687;-88
2022/06/06 12:34:47;;;;;;;3.80;1.90;;;24.30;84.60;;;;;;5094248;28;20627;-90
2022/06/06 12:37:20;;;;;;;2.07;1.70;;;24.40;83.60;;;;;;5091103;28;21204;-89
2022/06/06 12:40:01;;;;;;;1.93;1.83;;;24.50;84.20;;;;;;5093330;28;20615;-89
2022/06/06 12:42:39;;;;;;;2.07;1.90;;;24.70;83.80;;;;;;5092083;28;20643;-90
2022/06/06 12:45:26;;;;;;;6.17;1.60;;;25.00;82.90;;;;;;5097814;28;20658;-89
2022/06/06 12:48:16;;;;;;;2.17;1.83;;;25.40;77.40;;;;;;5096860;28;21174;-90
2022/06/06 12:50:56;;;;;;;2.07;1.47;;;25.70;75.60;;;;;;5093153;28;20758;-90
2022/06/06 12:53:49;;;;;;;1.70;1.60;;;26.30;72.80;;;;;;5097485;28;20623;-89
2022/06/06 12:56:25;;;;;;;6.03;1.80;;;26.80;69.80;;;;;;5087612;28;21166;-89
2022/06/06 12:59:13;;;;;;;1.40;1.30;;;27.20;66.90;;;;;;5096526;28;20694;-90
2022/06/06 13:01:50;;;;;;;2.10;1.50;;;27.60;65.70;;;;;;5091419;28;20674;-90
2022/06/06 13:04:44;;;;;;;2.40;1.47;;;27.90;64.30;;;;;;5094689;28;20750;-90
2022/06/06 13:07:23;;;;;;;1.87;1.43;;;27.90;62.50;;;;;;5096303;28;20619;-90
2022/06/06 13:10:05;;;;;;;2.50;1.80;;;28.00;62.50;;;;;;5104291;28;20647;-90
2022/06/06 13:13:06;;;;;;;2.30;1.90;;;28.20;61.80;;;;;;5099955;28;20690;-90
2022/06/06 13:15:38;;;;;;;2.03;1.60;;;28.40;61.80;;;;;;5070300;28;20645;-89
2022/06/06 13:18:43;;;;;;;2.17;1.97;;;28.60;61.40;;;;;;5098364;28;20755;-90
2022/06/06 13:21:19;;;;;;;1.70;1.60;;;28.80;62.00;;;;;;5100516;28;20635;-89
2022/06/06 13:24:02;;;;;;;2.37;2.17;;;28.60;61.40;;;;;;5086558;28;20667;-89
2022/06/06 13:26:46;;;;;;;2.10;1.90;;;28.10;59.60;;;;;;5094620;28;20658;-89
2022/06/06 13:29:26;;;;;;;2.00;1.90;;;27.70;61.10;;;;;;5090660;28;20715;-90
2022/06/06 13:32:03;;;;;;;1.90;1.80;;;27.40;61.80;;;;;;5088772;28;20716;-89
2022/06/06 13:34:41;;;;;;;2.50;2.30;;;27.10;61.90;;;;;;5091715;28;20615;-90
2022/06/06 13:37:30;;;;;;;1.73;1.63;;;26.80;63.40;;;;;;5101018;28;20627;-90
2022/06/06 13:40:31;;;;;;;2.30;1.97;;;26.60;63.90;;;;;;5096304;28;20632;-90
2022/06/06 13:43:24;;;;;;;2.17;2.07;;;26.30;66.50;;;;;;5088750;28;20646;-90
2022/06/06 13:46:01;;;;;;;2.67;2.10;;;26.00;67.10;;;;;;5093576;28;21032;-89
2022/06/06 13:48:50;;;;;;;2.10;1.90;;;25.80;66.60;;;;;;5092014;28;20628;-90
2022/06/06 13:51:39;;;;;;;2.73;2.17;;;25.50;68.50;;;;;;5090224;28;20664;-88
2022/06/06 13:54:09;;;;;;;2.83;2.37;;;25.30;70.40;;;;;;5092475;28;20727;-89
2022/06/06 13:56:56;;;;;;;2.27;2.07;;;25.00;74.40;;;;;;5091254;28;20616;-89
2022/06/06 13:59:39;;;;;;;2.33;2.23;;;24.80;77.30;;;;;;5088690;28;20612;-90
2022/06/06 14:02:21;;;;;;;2.30;2.10;;;24.60;74.60;;;;;;5092839;28;20648;-89
2022/06/06 14:05:03;;;;;;;2.93;1.97;;;24.40;75.00;;;;;;5095666;28;20716;-89
2022/06/06 14:07:49;;;;;;;1.90;1.80;;;24.30;74.60;;;;;;5090778;28;20627;-89
2022/06/06 14:10:19;;;;;;;2.37;1.97;;;24.20;72.70;;;;;;5094660;28;20636;-90
2022/06/06 14:12:58;;;;;;;1.97;1.63;;;24.20;73.40;;;;;;5094845;28;20624;-90
2022/06/06 14:15:26;;;;;;;2.20;1.30;;;24.20;73.90;;;;;;5091636;28;21522;-90
2022/06/06 14:17:58;;;;;;;1.90;1.80;;;24.20;76.40;;;;;;5092471;28;20581;-90
2022/06/06 14:20:35;;;;;;;2.00;1.30;;;24.20;76.10;;;;;;5087929;28;20716;-90
2022/06/06 14:23:24;;;;;;;7.10;1.80;;;24.30;76.70;;;;;;5092755;28;21387;-87
2022/06/06 14:25:56;;;;;;;1.70;1.60;;;24.30;76.00;;;;;;5091289;28;20652;-89